sensor_id;sensor_type;location;lat;lon;timestamp;P1;durP1;ratioP1;P2;durP2;ratioP2
77158;SDS011;66129;45.890;13.714;2023-03-04T00:01:42;24.50;;;13.13;;
77158;SDS011;66129;45.890;13.714;2023-03-04T00:04:08;19.20;;;10.90;;
77158;SDS011;66129;45.890;13.714;2023-03-04T00:06:33;23.08;;;11.23;;
77158;SDS011;66129;45.890;13.714;2023-03-04T00:08:59;21.58;;;12.05;;
77158;SDS011;66129;45.890;13.714;2023-03-04T00:11:24;24.70;;;10.85;;
77158;SDS011;66129;45.890;13.714;2023-03-04T00:13:50;24.02;;;11.68;;
77158;SDS011;66129;45.890;13.714;2023-03-04T00:16:15;22.58;;;11.13;;
77158;SDS011;66129;45.890;13.714;2023-03-04T00:18:41;23.17;;;11.52;;
77158;SDS011;66129;45.890;13.714;2023-03-04T00:21:06;20.33;;;11.50;;
77158;SDS011;66129;45.890;13.714;2023-03-04T00:23:32;22.83;;;12.38;;
77158;SDS011;66129;45.890;13.714;2023-03-04T00:25:58;19.13;;;10.85;;
77158;SDS011;66129;45.890;13.714;2023-03-04T00:28:23;22.45;;;11.40;;
77158;SDS011;66129;45.890;13.714;2023-03-04T00:30:49;19.10;;;11.07;;
77158;SDS011;66129;45.890;13.714;2023-03-04T00:33:14;22.92;;;10.93;;
77158;SDS011;66129;45.890;13.714;2023-03-04T00:35:40;20.42;;;10.52;;
77158;SDS011;66129;45.890;13.714;2023-03-04T00:38:05;22.77;;;12.43;;
77158;SDS011;66129;45.890;13.714;2023-03-04T00:40:31;19.73;;;10.90;;
77158;SDS011;66129;45.890;13.714;2023-03-04T00:42:56;23.52;;;11.90;;
77158;SDS011;66129;45.890;13.714;2023-03-04T00:45:22;26.63;;;12.57;;
77158;SDS011;66129;45.890;13.714;2023-03-04T00:47:47;23.05;;;11.18;;
77158;SDS011;66129;45.890;13.714;2023-03-04T00:50:13;24.95;;;12.95;;
77158;SDS011;66129;45.890;13.714;2023-03-04T00:52:38;23.33;;;12.52;;
77158;SDS011;66129;45.890;13.714;2023-03-04T00:55:04;21.85;;;12.07;;
77158;SDS011;66129;45.890;13.714;2023-03-04T00:57:30;26.67;;;13.10;;
77158;SDS011;66129;45.890;13.714;2023-03-04T00:59:56;23.65;;;12.25;;
77158;SDS011;66129;45.890;13.714;2023-03-04T01:02:21;21.05;;;12.63;;
77158;SDS011;66129;45.890;13.714;2023-03-04T01:04:47;20.63;;;11.13;;
77158;SDS011;66129;45.890;13.714;2023-03-04T01:07:12;25.08;;;12.18;;
77158;SDS011;66129;45.890;13.714;2023-03-04T01:09:38;22.90;;;11.95;;
77158;SDS011;66129;45.890;13.714;2023-03-04T01:12:03;22.95;;;11.55;;
77158;SDS011;66129;45.890;13.714;2023-03-04T01:14:29;27.40;;;11.60;;
77158;SDS011;66129;45.890;13.714;2023-03-04T01:16:54;24.15;;;11.63;;
77158;SDS011;66129;45.890;13.714;2023-03-04T01:19:20;22.05;;;10.77;;
77158;SDS011;66129;45.890;13.714;2023-03-04T01:21:45;18.27;;;10.07;;
77158;SDS011;66129;45.890;13.714;2023-03-04T01:24:11;21.92;;;12.05;;
77158;SDS011;66129;45.890;13.714;2023-03-04T01:26:36;25.42;;;11.85;;
77158;SDS011;66129;45.890;13.714;2023-03-04T01:29:02;24.13;;;11.98;;
77158;SDS011;66129;45.890;13.714;2023-03-04T01:31:28;23.25;;;11.32;;
77158;SDS011;66129;45.890;13.714;2023-03-04T01:33:54;24.83;;;12.32;;
77158;SDS011;66129;45.890;13.714;2023-03-04T01:36:20;24.63;;;12.27;;
77158;SDS011;66129;45.890;13.714;2023-03-04T01:38:45;24.33;;;12.82;;
77158;SDS011;66129;45.890;13.714;2023-03-04T01:41:11;22.52;;;10.55;;
77158;SDS011;66129;45.890;13.714;2023-03-04T01:43:38;24.15;;;11.43;;
77158;SDS011;66129;45.890;13.714;2023-03-04T01:46:04;22.95;;;11.93;;
77158;SDS011;66129;45.890;13.714;2023-03-04T01:48:32;23.08;;;12.27;;
77158;SDS011;66129;45.890;13.714;2023-03-04T01:51:01;23.90;;;13.15;;
77158;SDS011;66129;45.890;13.714;2023-03-04T01:53:28;26.40;;;12.35;;
77158;SDS011;66129;45.890;13.714;2023-03-04T01:55:56;25.77;;;12.50;;
77158;SDS011;66129;45.890;13.714;2023-03-04T01:58:25;26.67;;;12.65;;
77158;SDS011;66129;45.890;13.714;2023-03-04T02:00:54;28.80;;;12.63;;
77158;SDS011;66129;45.890;13.714;2023-03-04T02:03:20;24.92;;;12.65;;
77158;SDS011;66129;45.890;13.714;2023-03-04T02:05:49;25.15;;;10.77;;
77158;SDS011;66129;45.890;13.714;2023-03-04T02:08:17;26.10;;;11.43;;
77158;SDS011;66129;45.890;13.714;2023-03-04T02:10:45;23.30;;;13.02;;
77158;SDS011;66129;45.890;13.714;2023-03-04T02:13:11;23.25;;;12.18;;
77158;SDS011;66129;45.890;13.714;2023-03-04T02:15:38;24.27;;;13.25;;
77158;SDS011;66129;45.890;13.714;2023-03-04T02:20:42;22.13;;;11.80;;
77158;SDS011;66129;45.890;13.714;2023-03-04T02:23:23;28.05;;;13.52;;
77158;SDS011;66129;45.890;13.714;2023-03-04T02:26:09;25.45;;;13.40;;
77158;SDS011;66129;45.890;13.714;2023-03-04T02:28:38;30.45;;;15.43;;
77158;SDS011;66129;45.890;13.714;2023-03-04T02:31:04;28.90;;;12.95;;
77158;SDS011;66129;45.890;13.714;2023-03-04T02:33:30;21.77;;;11.80;;
77158;SDS011;66129;45.890;13.714;2023-03-04T02:35:57;19.23;;;10.32;;
77158;SDS011;66129;45.890;13.714;2023-03-04T02:38:23;27.90;;;11.80;;
77158;SDS011;66129;45.890;13.714;2023-03-04T02:40:50;23.92;;;12.73;;
77158;SDS011;66129;45.890;13.714;2023-03-04T02:43:18;23.25;;;12.73;;
77158;SDS011;66129;45.890;13.714;2023-03-04T02:45:45;25.98;;;12.73;;
77158;SDS011;66129;45.890;13.714;2023-03-04T02:48:16;26.27;;;13.07;;
77158;SDS011;66129;45.890;13.714;2023-03-04T02:50:54;29.95;;;13.82;;
77158;SDS011;66129;45.890;13.714;2023-03-04T02:53:19;25.88;;;13.80;;
77158;SDS011;66129;45.890;13.714;2023-03-04T02:55:46;26.88;;;14.07;;
77158;SDS011;66129;45.890;13.714;2023-03-04T02:58:12;25.42;;;14.02;;
77158;SDS011;66129;45.890;13.714;2023-03-04T03:00:38;27.98;;;13.38;;
77158;SDS011;66129;45.890;13.714;2023-03-04T03:03:05;27.20;;;13.73;;
77158;SDS011;66129;45.890;13.714;2023-03-04T03:05:31;24.08;;;13.77;;
77158;SDS011;66129;45.890;13.714;2023-03-04T03:08:00;31.00;;;13.60;;
77158;SDS011;66129;45.890;13.714;2023-03-04T03:10:25;27.92;;;15.38;;
77158;SDS011;66129;45.890;13.714;2023-03-04T03:12:51;26.83;;;13.07;;
77158;SDS011;66129;45.890;13.714;2023-03-04T03:15:17;25.33;;;13.45;;
77158;SDS011;66129;45.890;13.714;2023-03-04T03:17:43;28.80;;;15.70;;
77158;SDS011;66129;45.890;13.714;2023-03-04T03:20:09;36.05;;;19.83;;
77158;SDS011;66129;45.890;13.714;2023-03-04T03:22:37;34.20;;;17.63;;
77158;SDS011;66129;45.890;13.714;2023-03-04T03:25:02;39.53;;;19.63;;
77158;SDS011;66129;45.890;13.714;2023-03-04T03:27:28;39.25;;;20.85;;
77158;SDS011;66129;45.890;13.714;2023-03-04T03:29:54;30.40;;;17.23;;
77158;SDS011;66129;45.890;13.714;2023-03-04T03:32:19;26.92;;;14.48;;
77158;SDS011;66129;45.890;13.714;2023-03-04T03:34:45;22.92;;;11.88;;
77158;SDS011;66129;45.890;13.714;2023-03-04T03:37:10;20.50;;;11.80;;
77158;SDS011;66129;45.890;13.714;2023-03-04T03:39:36;20.08;;;10.10;;
77158;SDS011;66129;45.890;13.714;2023-03-04T03:42:01;23.10;;;10.70;;
77158;SDS011;66129;45.890;13.714;2023-03-04T03:44:27;22.05;;;12.10;;
77158;SDS011;66129;45.890;13.714;2023-03-04T03:46:52;20.30;;;11.45;;
77158;SDS011;66129;45.890;13.714;2023-03-04T03:49:18;25.40;;;11.50;;
77158;SDS011;66129;45.890;13.714;2023-03-04T03:51:43;21.23;;;10.88;;
77158;SDS011;66129;45.890;13.714;2023-03-04T03:54:09;24.52;;;12.00;;
77158;SDS011;66129;45.890;13.714;2023-03-04T03:56:34;21.98;;;10.75;;
77158;SDS011;66129;45.890;13.714;2023-03-04T03:59:00;23.10;;;10.77;;
77158;SDS011;66129;45.890;13.714;2023-03-04T04:01:25;24.33;;;13.45;;
77158;SDS011;66129;45.890;13.714;2023-03-04T04:03:51;27.70;;;11.93;;
77158;SDS011;66129;45.890;13.714;2023-03-04T04:06:17;24.00;;;12.32;;
77158;SDS011;66129;45.890;13.714;2023-03-04T04:08:43;26.05;;;12.40;;
77158;SDS011;66129;45.890;13.714;2023-03-04T04:11:09;23.17;;;11.43;;
77158;SDS011;66129;45.890;13.714;2023-03-04T04:13:35;25.45;;;12.48;;
77158;SDS011;66129;45.890;13.714;2023-03-04T04:16:01;21.60;;;11.88;;
77158;SDS011;66129;45.890;13.714;2023-03-04T04:18:26;21.05;;;11.73;;
77158;SDS011;66129;45.890;13.714;2023-03-04T04:20:52;23.48;;;11.48;;
77158;SDS011;66129;45.890;13.714;2023-03-04T04:23:18;24.52;;;13.43;;
77158;SDS011;66129;45.890;13.714;2023-03-04T04:25:44;25.65;;;11.88;;
77158;SDS011;66129;45.890;13.714;2023-03-04T04:28:09;23.67;;;12.35;;
77158;SDS011;66129;45.890;13.714;2023-03-04T04:30:35;28.10;;;13.82;;
77158;SDS011;66129;45.890;13.714;2023-03-04T04:33:00;29.40;;;13.45;;
77158;SDS011;66129;45.890;13.714;2023-03-04T04:35:28;21.30;;;11.48;;
77158;SDS011;66129;45.890;13.714;2023-03-04T04:37:55;27.98;;;11.90;;
77158;SDS011;66129;45.890;13.714;2023-03-04T04:40:20;25.58;;;12.85;;
77158;SDS011;66129;45.890;13.714;2023-03-04T04:42:46;29.10;;;13.20;;
77158;SDS011;66129;45.890;13.714;2023-03-04T04:45:11;27.08;;;12.40;;
77158;SDS011;66129;45.890;13.714;2023-03-04T04:47:37;31.70;;;14.48;;
77158;SDS011;66129;45.890;13.714;2023-03-04T04:50:02;28.13;;;13.45;;
77158;SDS011;66129;45.890;13.714;2023-03-04T04:52:28;28.30;;;12.35;;
77158;SDS011;66129;45.890;13.714;2023-03-04T04:54:53;29.15;;;13.02;;
77158;SDS011;66129;45.890;13.714;2023-03-04T04:57:19;27.92;;;13.55;;
77158;SDS011;66129;45.890;13.714;2023-03-04T04:59:44;27.65;;;13.27;;
77158;SDS011;66129;45.890;13.714;2023-03-04T05:02:10;28.90;;;13.68;;
77158;SDS011;66129;45.890;13.714;2023-03-04T05:04:35;24.38;;;12.50;;
77158;SDS011;66129;45.890;13.714;2023-03-04T05:07:01;24.70;;;11.63;;
77158;SDS011;66129;45.890;13.714;2023-03-04T05:09:26;22.75;;;12.43;;
77158;SDS011;66129;45.890;13.714;2023-03-04T05:11:52;27.00;;;13.02;;
77158;SDS011;66129;45.890;13.714;2023-03-04T05:14:17;24.92;;;13.35;;
77158;SDS011;66129;45.890;13.714;2023-03-04T05:16:43;40.88;;;21.63;;
77158;SDS011;66129;45.890;13.714;2023-03-04T05:19:08;33.80;;;14.95;;
77158;SDS011;66129;45.890;13.714;2023-03-04T05:21:34;25.77;;;13.05;;
77158;SDS011;66129;45.890;13.714;2023-03-04T05:23:59;22.50;;;12.25;;
77158;SDS011;66129;45.890;13.714;2023-03-04T05:26:25;31.40;;;14.00;;
77158;SDS011;66129;45.890;13.714;2023-03-04T05:28:51;24.55;;;12.30;;
77158;SDS011;66129;45.890;13.714;2023-03-04T05:31:16;26.13;;;13.45;;
77158;SDS011;66129;45.890;13.714;2023-03-04T05:33:42;25.88;;;13.45;;
77158;SDS011;66129;45.890;13.714;2023-03-04T05:36:07;28.38;;;13.63;;
77158;SDS011;66129;45.890;13.714;2023-03-04T05:38:33;29.58;;;14.63;;
77158;SDS011;66129;45.890;13.714;2023-03-04T05:41:00;27.27;;;13.77;;
77158;SDS011;66129;45.890;13.714;2023-03-04T05:43:28;30.80;;;14.50;;
77158;SDS011;66129;45.890;13.714;2023-03-04T05:45:54;28.58;;;13.35;;
77158;SDS011;66129;45.890;13.714;2023-03-04T05:48:19;25.33;;;13.90;;
77158;SDS011;66129;45.890;13.714;2023-03-04T05:50:45;30.23;;;13.30;;
77158;SDS011;66129;45.890;13.714;2023-03-04T05:53:11;28.90;;;13.55;;
77158;SDS011;66129;45.890;13.714;2023-03-04T05:55:36;25.58;;;12.38;;
77158;SDS011;66129;45.890;13.714;2023-03-04T05:58:02;31.50;;;14.40;;
77158;SDS011;66129;45.890;13.714;2023-03-04T06:00:28;29.77;;;14.40;;
77158;SDS011;66129;45.890;13.714;2023-03-04T06:02:53;34.15;;;14.73;;
77158;SDS011;66129;45.890;13.714;2023-03-04T06:05:19;29.55;;;14.63;;
77158;SDS011;66129;45.890;13.714;2023-03-04T06:07:45;33.75;;;16.30;;
77158;SDS011;66129;45.890;13.714;2023-03-04T06:10:12;32.78;;;16.42;;
77158;SDS011;66129;45.890;13.714;2023-03-04T06:12:40;32.22;;;16.00;;
77158;SDS011;66129;45.890;13.714;2023-03-04T06:15:06;29.42;;;13.63;;
77158;SDS011;66129;45.890;13.714;2023-03-04T06:17:34;27.50;;;13.50;;
77158;SDS011;66129;45.890;13.714;2023-03-04T06:20:00;27.90;;;14.35;;
77158;SDS011;66129;45.890;13.714;2023-03-04T06:22:25;34.20;;;16.83;;
77158;SDS011;66129;45.890;13.714;2023-03-04T06:24:51;33.35;;;17.23;;
77158;SDS011;66129;45.890;13.714;2023-03-04T06:27:17;34.83;;;16.63;;
77158;SDS011;66129;45.890;13.714;2023-03-04T06:29:42;30.80;;;14.75;;
77158;SDS011;66129;45.890;13.714;2023-03-04T06:32:07;29.50;;;13.48;;
77158;SDS011;66129;45.890;13.714;2023-03-04T06:34:33;82.15;;;38.28;;
77158;SDS011;66129;45.890;13.714;2023-03-04T06:36:59;48.08;;;23.23;;
77158;SDS011;66129;45.890;13.714;2023-03-04T06:39:24;147.10;;;62.70;;
77158;SDS011;66129;45.890;13.714;2023-03-04T06:41:50;55.88;;;26.58;;
77158;SDS011;66129;45.890;13.714;2023-03-04T06:44:16;44.38;;;21.00;;
77158;SDS011;66129;45.890;13.714;2023-03-04T06:46:41;41.67;;;19.50;;
77158;SDS011;66129;45.890;13.714;2023-03-04T06:49:07;44.33;;;22.17;;
77158;SDS011;66129;45.890;13.714;2023-03-04T06:51:33;36.38;;;16.00;;
77158;SDS011;66129;45.890;13.714;2023-03-04T06:53:58;33.20;;;17.00;;
77158;SDS011;66129;45.890;13.714;2023-03-04T06:56:24;33.22;;;14.50;;
77158;SDS011;66129;45.890;13.714;2023-03-04T06:58:49;36.83;;;19.45;;
77158;SDS011;66129;45.890;13.714;2023-03-04T07:01:19;33.08;;;14.98;;
77158;SDS011;66129;45.890;13.714;2023-03-04T07:03:49;38.17;;;19.25;;
77158;SDS011;66129;45.890;13.714;2023-03-04T07:06:17;34.35;;;17.48;;
77158;SDS011;66129;45.890;13.714;2023-03-04T07:08:44;33.22;;;17.80;;
77158;SDS011;66129;45.890;13.714;2023-03-04T07:11:10;34.33;;;17.55;;
77158;SDS011;66129;45.890;13.714;2023-03-04T07:13:36;30.48;;;16.63;;
77158;SDS011;66129;45.890;13.714;2023-03-04T07:16:06;26.77;;;15.02;;
77158;SDS011;66129;45.890;13.714;2023-03-04T07:18:35;35.00;;;20.83;;
77158;SDS011;66129;45.890;13.714;2023-03-04T07:21:01;32.08;;;18.63;;
77158;SDS011;66129;45.890;13.714;2023-03-04T07:23:27;30.48;;;15.82;;
77158;SDS011;66129;45.890;13.714;2023-03-04T07:25:52;27.63;;;15.30;;
77158;SDS011;66129;45.890;13.714;2023-03-04T07:28:18;25.10;;;14.95;;
77158;SDS011;66129;45.890;13.714;2023-03-04T07:30:43;24.83;;;12.82;;
77158;SDS011;66129;45.890;13.714;2023-03-04T07:33:09;21.58;;;12.60;;
77158;SDS011;66129;45.890;13.714;2023-03-04T07:35:35;23.42;;;13.15;;
77158;SDS011;66129;45.890;13.714;2023-03-04T07:38:00;23.88;;;13.07;;
77158;SDS011;66129;45.890;13.714;2023-03-04T07:40:26;21.95;;;13.68;;
77158;SDS011;66129;45.890;13.714;2023-03-04T07:42:52;21.88;;;13.52;;
77158;SDS011;66129;45.890;13.714;2023-03-04T07:45:19;21.95;;;14.43;;
77158;SDS011;66129;45.890;13.714;2023-03-04T07:47:45;24.23;;;14.07;;
77158;SDS011;66129;45.890;13.714;2023-03-04T07:50:12;23.80;;;14.25;;
77158;SDS011;66129;45.890;13.714;2023-03-04T07:52:39;24.50;;;14.25;;
77158;SDS011;66129;45.890;13.714;2023-03-04T07:55:05;24.85;;;14.70;;
77158;SDS011;66129;45.890;13.714;2023-03-04T07:57:32;27.60;;;15.10;;
77158;SDS011;66129;45.890;13.714;2023-03-04T07:59:59;22.10;;;13.88;;
77158;SDS011;66129;45.890;13.714;2023-03-04T08:02:24;23.85;;;13.32;;
77158;SDS011;66129;45.890;13.714;2023-03-04T08:04:50;22.70;;;12.38;;
77158;SDS011;66129;45.890;13.714;2023-03-04T08:07:15;20.58;;;11.50;;
77158;SDS011;66129;45.890;13.714;2023-03-04T08:09:41;21.73;;;12.75;;
77158;SDS011;66129;45.890;13.714;2023-03-04T08:12:07;23.13;;;13.05;;
77158;SDS011;66129;45.890;13.714;2023-03-04T08:14:33;22.05;;;12.07;;
77158;SDS011;66129;45.890;13.714;2023-03-04T08:16:59;22.42;;;13.70;;
77158;SDS011;66129;45.890;13.714;2023-03-04T08:19:24;28.95;;;14.95;;
77158;SDS011;66129;45.890;13.714;2023-03-04T08:21:50;24.02;;;14.13;;
77158;SDS011;66129;45.890;13.714;2023-03-04T08:24:15;23.15;;;12.48;;
77158;SDS011;66129;45.890;13.714;2023-03-04T08:26:43;24.67;;;13.02;;
77158;SDS011;66129;45.890;13.714;2023-03-04T08:29:11;24.58;;;15.40;;
77158;SDS011;66129;45.890;13.714;2023-03-04T08:31:40;22.40;;;14.40;;
77158;SDS011;66129;45.890;13.714;2023-03-04T08:34:07;26.05;;;13.43;;
77158;SDS011;66129;45.890;13.714;2023-03-04T08:36:34;23.42;;;14.38;;
77158;SDS011;66129;45.890;13.714;2023-03-04T08:39:00;25.40;;;14.07;;
77158;SDS011;66129;45.890;13.714;2023-03-04T08:41:26;22.00;;;14.50;;
77158;SDS011;66129;45.890;13.714;2023-03-04T08:43:52;24.38;;;13.23;;
77158;SDS011;66129;45.890;13.714;2023-03-04T08:46:17;21.70;;;13.40;;
77158;SDS011;66129;45.890;13.714;2023-03-04T08:48:43;18.95;;;13.30;;
77158;SDS011;66129;45.890;13.714;2023-03-04T08:51:09;25.05;;;15.73;;
77158;SDS011;66129;45.890;13.714;2023-03-04T08:53:37;37.15;;;23.35;;
77158;SDS011;66129;45.890;13.714;2023-03-04T08:56:02;23.80;;;15.32;;
77158;SDS011;66129;45.890;13.714;2023-03-04T08:58:29;25.98;;;17.60;;
77158;SDS011;66129;45.890;13.714;2023-03-04T09:00:55;23.75;;;15.18;;
77158;SDS011;66129;45.890;13.714;2023-03-04T09:03:20;24.55;;;15.77;;
77158;SDS011;66129;45.890;13.714;2023-03-04T09:05:46;20.90;;;12.88;;
77158;SDS011;66129;45.890;13.714;2023-03-04T09:08:13;21.35;;;12.82;;
77158;SDS011;66129;45.890;13.714;2023-03-04T09:10:39;23.33;;;13.88;;
77158;SDS011;66129;45.890;13.714;2023-03-04T09:13:04;25.20;;;13.27;;
77158;SDS011;66129;45.890;13.714;2023-03-04T09:15:30;22.88;;;13.65;;
77158;SDS011;66129;45.890;13.714;2023-03-04T09:18:00;21.50;;;13.60;;
77158;SDS011;66129;45.890;13.714;2023-03-04T09:20:26;21.00;;;12.77;;
77158;SDS011;66129;45.890;13.714;2023-03-04T09:22:52;23.15;;;13.43;;
77158;SDS011;66129;45.890;13.714;2023-03-04T09:25:18;22.63;;;14.35;;
77158;SDS011;66129;45.890;13.714;2023-03-04T09:27:43;21.80;;;13.48;;
77158;SDS011;66129;45.890;13.714;2023-03-04T09:30:09;22.60;;;13.40;;
77158;SDS011;66129;45.890;13.714;2023-03-04T09:32:35;21.63;;;13.70;;
77158;SDS011;66129;45.890;13.714;2023-03-04T09:35:01;17.10;;;12.60;;
77158;SDS011;66129;45.890;13.714;2023-03-04T09:37:27;22.20;;;13.00;;
77158;SDS011;66129;45.890;13.714;2023-03-04T09:39:52;20.30;;;13.35;;
77158;SDS011;66129;45.890;13.714;2023-03-04T09:42:24;21.45;;;13.52;;
77158;SDS011;66129;45.890;13.714;2023-03-04T09:44:54;20.85;;;11.95;;
77158;SDS011;66129;45.890;13.714;2023-03-04T09:47:20;17.77;;;12.20;;
77158;SDS011;66129;45.890;13.714;2023-03-04T09:49:53;17.77;;;12.43;;
77158;SDS011;66129;45.890;13.714;2023-03-04T10:00:31;19.05;;;11.77;;
77158;SDS011;66129;45.890;13.714;2023-03-04T10:03:19;18.70;;;11.30;;
77158;SDS011;66129;45.890;13.714;2023-03-04T10:05:50;19.20;;;13.23;;
77158;SDS011;66129;45.890;13.714;2023-03-04T10:10:57;17.00;;;11.05;;
77158;SDS011;66129;45.890;13.714;2023-03-04T10:13:34;17.13;;;11.23;;
77158;SDS011;66129;45.890;13.714;2023-03-04T10:16:08;19.02;;;12.43;;
77158;SDS011;66129;45.890;13.714;2023-03-04T10:18:43;16.60;;;10.10;;
77158;SDS011;66129;45.890;13.714;2023-03-04T10:24:11;18.27;;;10.40;;
77158;SDS011;66129;45.890;13.714;2023-03-04T10:26:39;17.75;;;9.90;;
77158;SDS011;66129;45.890;13.714;2023-03-04T10:29:12;17.70;;;11.65;;
77158;SDS011;66129;45.890;13.714;2023-03-04T10:31:39;17.25;;;10.27;;
77158;SDS011;66129;45.890;13.714;2023-03-04T10:34:08;19.90;;;11.00;;
77158;SDS011;66129;45.890;13.714;2023-03-04T10:44:37;18.48;;;11.55;;
77158;SDS011;66129;45.890;13.714;2023-03-04T10:47:08;17.13;;;9.13;;
77158;SDS011;66129;45.890;13.714;2023-03-04T10:49:36;17.00;;;10.38;;
77158;SDS011;66129;45.890;13.714;2023-03-04T10:52:22;19.35;;;11.23;;
77158;SDS011;66129;45.890;13.714;2023-03-04T10:54:56;15.15;;;9.23;;
77158;SDS011;66129;45.890;13.714;2023-03-04T11:00:22;15.07;;;8.82;;
77158;SDS011;66129;45.890;13.714;2023-03-04T11:02:46;17.02;;;10.05;;
77158;SDS011;66129;45.890;13.714;2023-03-04T11:05:23;17.27;;;9.10;;
77158;SDS011;66129;45.890;13.714;2023-03-04T11:10:23;15.90;;;8.60;;
77158;SDS011;66129;45.890;13.714;2023-03-04T11:15:23;15.93;;;7.97;;
77158;SDS011;66129;45.890;13.714;2023-03-04T11:18:05;14.23;;;8.43;;
77158;SDS011;66129;45.890;13.714;2023-03-04T11:20:40;14.60;;;7.55;;
77158;SDS011;66129;45.890;13.714;2023-03-04T11:23:12;13.30;;;7.78;;
77158;SDS011;66129;45.890;13.714;2023-03-04T11:25:41;13.10;;;7.10;;
77158;SDS011;66129;45.890;13.714;2023-03-04T11:30:59;13.63;;;6.95;;
77158;SDS011;66129;45.890;13.714;2023-03-04T11:38:48;10.23;;;6.65;;
77158;SDS011;66129;45.890;13.714;2023-03-04T11:43:44;12.27;;;6.60;;
77158;SDS011;66129;45.890;13.714;2023-03-04T11:46:19;13.23;;;6.05;;
77158;SDS011;66129;45.890;13.714;2023-03-04T11:56:56;13.55;;;5.30;;
77158;SDS011;66129;45.890;13.714;2023-03-04T12:02:36;9.63;;;5.90;;
77158;SDS011;66129;45.890;13.714;2023-03-04T12:05:21;36.03;;;7.30;;
77158;SDS011;66129;45.890;13.714;2023-03-04T12:35:37;9.23;;;4.13;;
77158;SDS011;66129;45.890;13.714;2023-03-04T12:43:29;12.15;;;4.75;;
77158;SDS011;66129;45.890;13.714;2023-03-04T12:46:06;7.82;;;4.45;;
77158;SDS011;66129;45.890;13.714;2023-03-04T12:54:33;8.23;;;4.97;;
77158;SDS011;66129;45.890;13.714;2023-03-04T12:59:49;7.03;;;3.97;;
77158;SDS011;66129;45.890;13.714;2023-03-04T13:05:28;6.95;;;4.25;;
77158;SDS011;66129;45.890;13.714;2023-03-04T13:08:06;10.02;;;4.25;;
77158;SDS011;66129;45.890;13.714;2023-03-04T13:10:50;10.68;;;4.00;;
77158;SDS011;66129;45.890;13.714;2023-03-04T13:13:33;9.55;;;4.03;;
77158;SDS011;66129;45.890;13.714;2023-03-04T13:16:02;8.43;;;3.70;;
77158;SDS011;66129;45.890;13.714;2023-03-04T13:18:51;9.43;;;3.80;;
77158;SDS011;66129;45.890;13.714;2023-03-04T13:21:24;7.35;;;3.83;;
77158;SDS011;66129;45.890;13.714;2023-03-04T13:23:51;5.10;;;3.25;;
77158;SDS011;66129;45.890;13.714;2023-03-04T13:26:19;7.05;;;3.97;;
77158;SDS011;66129;45.890;13.714;2023-03-04T13:28:54;7.38;;;3.90;;
77158;SDS011;66129;45.890;13.714;2023-03-04T13:31:33;8.57;;;3.70;;
77158;SDS011;66129;45.890;13.714;2023-03-04T13:34:43;7.53;;;3.83;;
77158;SDS011;66129;45.890;13.714;2023-03-04T13:42:47;8.25;;;3.45;;
77158;SDS011;66129;45.890;13.714;2023-03-04T13:47:57;7.22;;;3.88;;
77158;SDS011;66129;45.890;13.714;2023-03-04T13:52:52;6.72;;;3.90;;
77158;SDS011;66129;45.890;13.714;2023-03-04T13:55:31;7.00;;;3.40;;
77158;SDS011;66129;45.890;13.714;2023-03-04T14:00:43;9.38;;;4.80;;
77158;SDS011;66129;45.890;13.714;2023-03-04T14:03:12;13.85;;;6.43;;
77158;SDS011;66129;45.890;13.714;2023-03-04T14:05:43;10.40;;;5.57;;
77158;SDS011;66129;45.890;13.714;2023-03-04T14:08:18;6.80;;;3.65;;
77158;SDS011;66129;45.890;13.714;2023-03-04T14:10:53;9.70;;;4.60;;
77158;SDS011;66129;45.890;13.714;2023-03-04T14:13:19;8.25;;;3.78;;
77158;SDS011;66129;45.890;13.714;2023-03-04T14:15:52;7.95;;;3.47;;
77158;SDS011;66129;45.890;13.714;2023-03-04T14:18:20;8.63;;;3.53;;
77158;SDS011;66129;45.890;13.714;2023-03-04T14:20:49;9.75;;;4.13;;
77158;SDS011;66129;45.890;13.714;2023-03-04T14:23:32;8.85;;;3.40;;
77158;SDS011;66129;45.890;13.714;2023-03-04T14:26:09;8.23;;;4.32;;
77158;SDS011;66129;45.890;13.714;2023-03-04T14:28:42;9.05;;;4.13;;
77158;SDS011;66129;45.890;13.714;2023-03-04T14:31:14;7.63;;;3.65;;
77158;SDS011;66129;45.890;13.714;2023-03-04T14:33:46;8.07;;;3.20;;
77158;SDS011;66129;45.890;13.714;2023-03-04T14:36:15;9.25;;;3.00;;
77158;SDS011;66129;45.890;13.714;2023-03-04T14:38:49;5.85;;;3.03;;
77158;SDS011;66129;45.890;13.714;2023-03-04T14:41:18;6.43;;;3.10;;
77158;SDS011;66129;45.890;13.714;2023-03-04T14:43:57;8.40;;;3.80;;
77158;SDS011;66129;45.890;13.714;2023-03-04T14:46:24;9.82;;;4.25;;
77158;SDS011;66129;45.890;13.714;2023-03-04T14:48:54;11.52;;;4.43;;
77158;SDS011;66129;45.890;13.714;2023-03-04T14:51:30;9.43;;;3.58;;
77158;SDS011;66129;45.890;13.714;2023-03-04T14:54:00;6.53;;;3.42;;
77158;SDS011;66129;45.890;13.714;2023-03-04T14:56:27;9.10;;;4.55;;
77158;SDS011;66129;45.890;13.714;2023-03-04T14:58:54;12.05;;;4.45;;
77158;SDS011;66129;45.890;13.714;2023-03-04T15:01:30;12.25;;;6.15;;
77158;SDS011;66129;45.890;13.714;2023-03-04T15:04:07;8.68;;;5.00;;
77158;SDS011;66129;45.890;13.714;2023-03-04T15:06:38;14.32;;;7.60;;
77158;SDS011;66129;45.890;13.714;2023-03-04T15:09:32;10.65;;;4.95;;
77158;SDS011;66129;45.890;13.714;2023-03-04T15:12:00;13.35;;;5.75;;
77158;SDS011;66129;45.890;13.714;2023-03-04T15:17:25;12.13;;;5.72;;
77158;SDS011;66129;45.890;13.714;2023-03-04T15:22:36;12.55;;;7.32;;
77158;SDS011;66129;45.890;13.714;2023-03-04T15:25:24;12.20;;;4.97;;
77158;SDS011;66129;45.890;13.714;2023-03-04T15:27:50;9.10;;;3.92;;
77158;SDS011;66129;45.890;13.714;2023-03-04T15:30:19;11.88;;;4.20;;
77158;SDS011;66129;45.890;13.714;2023-03-04T15:32:45;13.57;;;4.10;;
77158;SDS011;66129;45.890;13.714;2023-03-04T15:35:12;8.10;;;3.97;;
77158;SDS011;66129;45.890;13.714;2023-03-04T15:37:38;10.10;;;4.75;;
77158;SDS011;66129;45.890;13.714;2023-03-04T15:40:11;7.25;;;3.65;;
77158;SDS011;66129;45.890;13.714;2023-03-04T15:42:40;9.30;;;4.05;;
77158;SDS011;66129;45.890;13.714;2023-03-04T15:45:12;8.85;;;4.43;;
77158;SDS011;66129;45.890;13.714;2023-03-04T15:47:55;16.05;;;6.88;;
77158;SDS011;66129;45.890;13.714;2023-03-04T15:50:21;15.50;;;6.70;;
77158;SDS011;66129;45.890;13.714;2023-03-04T15:52:52;17.58;;;9.25;;
77158;SDS011;66129;45.890;13.714;2023-03-04T15:55:21;16.73;;;8.55;;
77158;SDS011;66129;45.890;13.714;2023-03-04T15:57:47;14.32;;;9.02;;
77158;SDS011;66129;45.890;13.714;2023-03-04T16:00:16;11.63;;;5.70;;
77158;SDS011;66129;45.890;13.714;2023-03-04T16:02:42;11.98;;;6.15;;
77158;SDS011;66129;45.890;13.714;2023-03-04T16:05:08;9.73;;;4.82;;
77158;SDS011;66129;45.890;13.714;2023-03-04T16:07:34;13.13;;;8.57;;
77158;SDS011;66129;45.890;13.714;2023-03-04T16:10:03;12.35;;;6.80;;
77158;SDS011;66129;45.890;13.714;2023-03-04T16:12:31;10.55;;;4.45;;
77158;SDS011;66129;45.890;13.714;2023-03-04T16:14:57;9.95;;;3.25;;
77158;SDS011;66129;45.890;13.714;2023-03-04T16:17:23;12.77;;;3.55;;